createdAt,value
2022-11-15T00:01:18.735Z,83.45
2022-11-15T00:07:01.163Z,71.35
2022-11-15T00:12:43.550Z,84.03
2022-11-15T00:18:27.811Z,74.88
2022-11-15T00:24:10.019Z,83.57
2022-11-15T00:29:52.052Z,89.90
2022-11-15T00:35:36.700Z,65.35
2022-11-15T00:41:18.957Z,70.85
2022-11-15T00:58:26.904Z,65.13
2022-11-15T01:09:52.107Z,90.95
2022-11-15T01:15:34.646Z,96.75
2022-11-15T01:21:19.188Z,55.03
2022-11-15T01:27:02.623Z,108.45
2022-11-15T01:32:44.828Z,99.90
2022-11-15T01:44:40.407Z,83.03
2022-11-15T01:50:28.030Z,80.57
2022-11-15T01:56:18.076Z,75.70
2022-11-15T02:02:02.084Z,89.75
2022-11-15T02:07:44.374Z,67.53
2022-11-15T02:13:26.614Z,63.63
2022-11-15T02:19:24.268Z,51.67
2022-11-15T02:25:25.597Z,59.53
2022-11-15T02:31:16.792Z,70.45
2022-11-15T02:37:05.387Z,69.55
2022-11-15T02:43:10.256Z,54.15
2022-11-15T02:48:54.017Z,55.15
2022-11-15T02:54:36.947Z,60.58
2022-11-15T03:00:20.830Z,49.45
2022-11-15T03:06:11.340Z,46.78
2022-11-15T03:11:59.571Z,47.30
2022-11-15T03:17:49.926Z,42.03
2022-11-15T03:23:35.540Z,44.38
2022-11-15T03:29:21.871Z,46.95
2022-11-15T03:35:07.011Z,37.10
2022-11-15T03:40:56.956Z,39.58
2022-11-15T03:46:42.665Z,38.05
2022-11-15T03:52:25.350Z,35.03
2022-11-15T03:58:09.001Z,35.63
2022-11-15T04:03:51.088Z,40.53
2022-11-15T04:09:33.421Z,37.97
2022-11-15T04:15:18.741Z,43.65
2022-11-15T04:21:18.330Z,33.95
2022-11-15T04:27:01.001Z,32.55
2022-11-15T04:32:44.491Z,36.88
2022-11-15T04:38:26.585Z,41.08
2022-11-15T04:44:08.585Z,36.83
2022-11-15T04:49:52.234Z,38.38
2022-11-15T04:55:34.518Z,44.80
2022-11-15T05:01:17.369Z,45.45
2022-11-15T05:07:01.364Z,38.15
2022-11-15T05:12:43.686Z,44.75
2022-11-15T05:18:25.959Z,39.50
2022-11-15T05:24:12.037Z,39.83
2022-11-15T05:29:54.018Z,40.03
2022-11-15T05:35:40.827Z,36.25
2022-11-15T05:41:35.897Z,38.17
2022-11-15T05:47:21.834Z,34.13
2022-11-15T05:53:05.419Z,35.10
2022-11-15T05:58:49.321Z,35.55
2022-11-15T06:04:31.312Z,34.45
2022-11-15T06:10:13.540Z,37.75
2022-11-15T06:15:58.895Z,39.65
2022-11-15T06:21:40.906Z,34.67
2022-11-15T06:27:23.007Z,41.38
2022-11-15T06:33:07.659Z,36.45
2022-11-15T06:38:49.981Z,38.28
2022-11-15T06:44:32.458Z,38.05
2022-11-15T06:50:16.187Z,39.33
2022-11-15T06:56:01.668Z,36.95
2022-11-15T07:01:44.159Z,42.35
2022-11-15T07:07:28.044Z,45.00
2022-11-15T07:13:10.349Z,44.42
2022-11-15T07:19:02.479Z,45.17
2022-11-15T07:24:47.471Z,46.20
2022-11-15T07:30:30.325Z,51.42
2022-11-15T07:36:12.510Z,52.20
2022-11-15T07:42:16.474Z,57.85
2022-11-15T07:47:58.999Z,49.60
2022-11-15T07:53:41.265Z,47.95
2022-11-15T07:59:24.791Z,46.17
2022-11-15T08:05:07.574Z,49.92
2022-11-15T08:10:49.392Z,41.47
2022-11-15T08:16:33.217Z,45.80
2022-11-15T08:22:15.130Z,47.95
2022-11-15T08:27:59.014Z,35.45
2022-11-15T08:33:42.353Z,34.95
2022-11-15T08:39:24.684Z,33.78
2022-11-15T08:45:08.108Z,33.78
2022-11-15T08:50:55.232Z,36.67
2022-11-15T08:56:37.582Z,30.52
2022-11-15T09:02:19.834Z,39.40
2022-11-15T09:08:13.874Z,33.13
2022-11-15T09:14:05.362Z,31.33
2022-11-15T09:19:47.530Z,33.38
2022-11-15T09:25:31.831Z,35.60
2022-11-15T09:31:17.965Z,32.90
2022-11-15T09:37:03.129Z,31.88
2022-11-15T09:43:04.199Z,30.10
2022-11-15T09:48:53.953Z,33.63
2022-11-15T10:00:46.423Z,46.28
2022-11-15T10:06:08.575Z,35.72
2022-11-15T10:11:38.328Z,36.92
2022-11-15T10:17:22.935Z,34.57
2022-11-15T10:22:49.064Z,39.60
2022-11-15T10:28:17.409Z,42.40
2022-11-15T10:33:42.429Z,35.58
2022-11-15T10:39:06.241Z,38.38
2022-11-15T10:44:31.618Z,38.25
2022-11-15T10:50:02.715Z,37.72
2022-11-15T10:55:29.837Z,38.30
2022-11-15T11:00:55.484Z,38.88
2022-11-15T11:06:20.593Z,36.45
2022-11-15T11:11:49.258Z,39.05
2022-11-15T11:17:18.909Z,39.45
2022-11-15T11:22:55.373Z,44.67
2022-11-15T11:28:36.926Z,44.10
2022-11-15T11:39:43.302Z,42.38
2022-11-15T11:45:18.259Z,45.53
2022-11-15T11:50:44.484Z,40.85
2022-11-15T11:56:18.781Z,42.35
2022-11-15T12:01:44.793Z,44.33
2022-11-15T12:07:19.552Z,44.88
2022-11-15T12:12:53.700Z,41.97
2022-11-15T12:18:18.917Z,42.75
2022-11-15T12:23:48.378Z,44.25
2022-11-15T12:29:19.458Z,51.08
2022-11-15T12:34:47.059Z,45.67
2022-11-15T12:40:28.748Z,46.15
2022-11-15T12:45:53.783Z,42.42
2022-11-15T12:51:17.979Z,50.42
2022-11-15T12:56:41.638Z,50.42
2022-11-15T13:02:20.190Z,55.38
2022-11-15T13:07:59.422Z,51.00
2022-11-15T13:13:45.919Z,54.05
2022-11-15T13:19:13.587Z,48.20
2022-11-15T13:24:40.574Z,50.17
2022-11-15T13:30:06.233Z,46.33
2022-11-15T13:35:42.490Z,55.80
2022-11-15T13:41:19.258Z,50.10
2022-11-15T13:46:44.449Z,49.42
2022-11-15T13:52:12.183Z,49.03
2022-11-15T13:57:42.706Z,48.17
2022-11-15T14:03:16.984Z,45.92
2022-11-15T14:08:43.022Z,49.10
2022-11-15T14:14:16.828Z,47.78
2022-11-15T14:19:42.004Z,49.47
2022-11-15T14:25:16.117Z,63.80
2022-11-15T14:30:41.569Z,68.88
2022-11-15T14:36:07.875Z,95.65
2022-11-15T14:41:38.791Z,68.05
2022-11-15T14:47:02.624Z,93.43
2022-11-15T14:52:32.574Z,69.13
2022-11-15T14:57:58.221Z,124.32
2022-11-15T15:03:21.855Z,82.97
2022-11-15T15:08:45.551Z,88.47
2022-11-15T15:14:11.151Z,55.03
2022-11-15T15:19:34.802Z,93.10
2022-11-15T15:24:58.733Z,67.63
2022-11-15T15:30:27.986Z,77.78
2022-11-15T15:35:51.613Z,71.25
2022-11-15T15:41:16.967Z,62.08
2022-11-15T15:46:42.102Z,57.65
2022-11-15T15:52:05.757Z,66.50
2022-11-15T15:57:29.385Z,60.95
2022-11-15T16:02:54.905Z,64.43
2022-11-15T16:08:20.692Z,56.25
2022-11-15T16:13:44.398Z,52.83
2022-11-15T16:19:12.542Z,57.10
2022-11-15T16:24:36.326Z,63.53
2022-11-15T16:30:00.023Z,68.95
2022-11-15T16:35:25.655Z,65.20
2022-11-15T16:40:49.484Z,72.40
2022-11-15T16:46:17.650Z,69.28
2022-11-15T16:51:44.999Z,62.47
2022-11-15T16:57:10.549Z,68.88
2022-11-15T17:02:34.493Z,74.20
2022-11-15T17:07:59.575Z,73.78
2022-11-15T17:13:23.186Z,69.20
2022-11-15T17:18:46.873Z,74.38
2022-11-15T17:24:12.777Z,73.68
2022-11-15T17:29:36.598Z,71.65
2022-11-15T17:35:00.251Z,71.32
2022-11-15T17:40:25.230Z,84.03
2022-11-15T17:45:48.911Z,67.68
2022-11-15T17:51:16.336Z,68.10
2022-11-15T17:56:42.322Z,67.40
2022-11-15T18:02:06.289Z,73.50
2022-11-15T18:07:30.040Z,68.85
2022-11-15T18:12:55.165Z,67.85
2022-11-15T18:18:18.832Z,61.63
2022-11-15T18:23:43.336Z,63.85
2022-11-15T18:29:08.327Z,61.90
2022-11-15T18:34:34.080Z,54.92
2022-11-15T18:39:57.716Z,58.65
2022-11-15T18:45:24.334Z,67.20
2022-11-15T18:50:48.080Z,73.95
2022-11-15T18:56:13.364Z,82.60
2022-11-15T19:01:39.782Z,79.38
2022-11-15T19:07:03.521Z,72.00
2022-11-15T19:12:27.203Z,74.57
2022-11-15T19:17:52.257Z,70.68
2022-11-15T19:23:15.912Z,79.72
2022-11-15T19:28:40.314Z,89.03
2022-11-15T19:34:06.431Z,78.28
2022-11-15T19:39:30.187Z,85.15
2022-11-15T19:44:54.385Z,85.78
2022-11-15T19:50:19.875Z,86.50
2022-11-15T19:55:43.944Z,79.15
2022-11-15T20:01:09.755Z,86.65
2022-11-15T20:06:36.794Z,83.57
2022-11-15T20:12:00.544Z,94.25
2022-11-15T20:17:24.366Z,83.68
2022-11-15T20:22:49.369Z,86.65
2022-11-15T20:28:17.837Z,83.03
2022-11-15T20:33:42.534Z,84.60
2022-11-15T20:39:07.836Z,85.35
2022-11-15T20:45:12.945Z,88.10
2022-11-15T20:50:42.669Z,88.55
2022-11-15T20:56:11.835Z,88.60
2022-11-15T21:01:35.641Z,86.43
2022-11-15T21:06:59.539Z,91.43
2022-11-15T21:12:24.624Z,100.07
2022-11-15T21:17:48.379Z,86.18
2022-11-15T21:23:13.222Z,95.57
2022-11-15T21:28:38.266Z,96.30
2022-11-15T21:34:03.117Z,90.63
2022-11-15T21:39:27.181Z,93.53
2022-11-15T21:44:52.239Z,97.63
2022-11-15T21:50:16.392Z,95.72
2022-11-15T21:55:40.452Z,98.82
2022-11-15T22:01:23.159Z,92.38
2022-11-15T22:06:46.994Z,96.70
2022-11-15T22:12:10.864Z,98.05
2022-11-15T22:17:53.178Z,88.03
2022-11-15T22:23:16.914Z,94.25
2022-11-15T22:28:40.571Z,93.35
2022-11-15T22:34:05.898Z,99.93
2022-11-15T22:39:29.569Z,111.35
2022-11-15T22:44:53.333Z,93.70
2022-11-15T22:50:19.000Z,93.53
2022-11-15T22:55:43.031Z,90.25
2022-11-15T23:01:07.558Z,90.43
2022-11-15T23:06:32.517Z,100.07
2022-11-15T23:12:13.556Z,110.95
2022-11-15T23:17:37.281Z,118.50
2022-11-15T23:23:02.305Z,107.75
2022-11-15T23:28:26.022Z,120.32
2022-11-15T23:33:58.594Z,116.25
2022-11-15T23:39:23.875Z,101.85
2022-11-15T23:44:49.923Z,112.93
2022-11-15T23:50:13.557Z,106.45
2022-11-15T23:55:38.536Z,121.45
